createdAt,value
2022-12-18T00:01:21.275Z,100045.41
2022-12-18T00:03:49.065Z,100039.97
2022-12-18T00:06:19.926Z,100047.13
2022-12-18T00:08:47.596Z,100049.78
2022-12-18T00:11:19.270Z,100050.63
2022-12-18T00:13:46.661Z,100053.28
2022-12-18T00:16:16.716Z,100050.75
2022-12-18T00:18:43.710Z,100055.22
2022-12-18T00:21:13.076Z,100051.72
2022-12-18T00:23:41.668Z,100056.38
2022-12-18T00:26:13.564Z,100057.50
2022-12-18T00:28:40.313Z,100063.97
2022-12-18T00:31:10.949Z,100079.56
2022-12-18T00:33:38.501Z,100081.37
2022-12-18T00:36:07.854Z,100092.34
2022-12-18T00:38:35.037Z,100093.47
2022-12-18T00:41:02.267Z,100096.84
2022-12-18T00:43:29.107Z,100095.84
2022-12-18T00:45:55.934Z,100102.03
2022-12-18T00:48:23.218Z,100101.03
2022-12-18T00:50:51.538Z,100104.69
2022-12-18T00:53:19.167Z,100107.91
2022-12-18T00:55:46.900Z,100113.38
2022-12-18T00:58:17.133Z,100113.53
2022-12-18T01:00:44.160Z,100114.50
2022-12-18T01:03:13.663Z,100106.94
2022-12-18T01:05:42.244Z,100114.50
2022-12-18T01:08:09.264Z,100118.84
2022-12-18T01:10:36.133Z,100119.16
2022-12-18T01:13:03.079Z,100121.94
2022-12-18T01:15:29.923Z,100130.94
2022-12-18T01:17:56.714Z,100127.44
2022-12-18T01:20:23.556Z,100130.94
2022-12-18T01:22:50.262Z,100126.06
2022-12-18T01:25:17.040Z,100124.38
2022-12-18T01:27:44.297Z,100121.81
2022-12-18T01:30:11.639Z,100132.63
2022-12-18T01:32:38.525Z,100134.59
2022-12-18T01:35:06.436Z,100139.22
2022-12-18T01:37:33.207Z,100127.44
2022-12-18T01:40:00.197Z,100131.06
2022-12-18T01:42:26.994Z,100132.06
2022-12-18T01:45:02.230Z,100139.22
2022-12-18T01:47:40.586Z,100147.19
2022-12-18T01:50:11.709Z,100140.34
2022-12-18T01:52:45.969Z,100149.44
2022-12-18T01:55:15.488Z,100153.53
2022-12-18T01:57:42.681Z,100153.38
2022-12-18T02:00:14.946Z,100166.00
2022-12-18T02:02:43.987Z,100167.53
2022-12-18T02:05:13.392Z,100167.69
2022-12-18T02:08:11.487Z,100169.66
2022-12-18T02:11:02.512Z,100172.87
2022-12-18T02:13:52.941Z,100178.34
2022-12-18T02:16:43.923Z,100181.56
2022-12-18T02:19:35.747Z,100181.00
2022-12-18T02:22:22.682Z,100181.97
2022-12-18T02:25:15.174Z,100184.94
2022-12-18T02:27:45.883Z,100194.03
2022-12-18T02:30:13.349Z,100195.28
2022-12-18T02:32:43.898Z,100204.25
2022-12-18T02:35:18.906Z,100203.41
2022-12-18T02:37:48.084Z,100204.38
2022-12-18T02:40:16.713Z,100204.66
2022-12-18T02:42:43.521Z,100210.69
2022-12-18T02:45:11.099Z,100217.28
2022-12-18T02:47:41.157Z,100227.78
2022-12-18T02:50:32.308Z,100216.44
2022-12-18T02:53:23.725Z,100219.09
2022-12-18T02:56:13.057Z,100216.19
2022-12-18T02:58:59.886Z,100221.81
2022-12-18T03:01:35.864Z,100232.75
2022-12-18T03:04:11.372Z,100231.00
2022-12-18T03:06:44.171Z,100222.59
2022-12-18T03:09:17.553Z,100223.69
2022-12-18T03:12:08.338Z,100229.03
2022-12-18T03:14:38.422Z,100230.94
2022-12-18T03:17:08.729Z,100233.87
2022-12-18T03:19:36.871Z,100229.41
2022-12-18T03:22:06.122Z,100240.47
2022-12-18T03:24:34.539Z,100233.72
2022-12-18T03:27:09.840Z,100228.94
2022-12-18T03:29:51.860Z,100238.62
2022-12-18T03:32:32.578Z,100244.59
2022-12-18T03:35:03.430Z,100245.81
2022-12-18T03:37:30.165Z,100245.69
2022-12-18T03:39:57.002Z,100244.41
2022-12-18T03:42:35.817Z,100241.88
2022-12-18T03:45:28.415Z,100247.47
2022-12-18T03:48:38.743Z,100252.94
2022-12-18T03:51:33.477Z,100260.06
2022-12-18T03:54:03.408Z,100264.09
2022-12-18T03:56:34.557Z,100263.50
2022-12-18T03:59:04.609Z,100264.75
2022-12-18T04:01:39.118Z,100264.03
2022-12-18T04:04:08.142Z,100258.53
2022-12-18T04:06:35.687Z,100266.25
2022-12-18T04:09:02.910Z,100263.59
2022-12-18T04:11:29.654Z,100272.53
2022-12-18T04:13:58.507Z,100260.22
2022-12-18T04:16:28.800Z,100266.66
2022-12-18T04:18:55.773Z,100266.91
2022-12-18T04:21:23.705Z,100266.19
2022-12-18T04:23:50.647Z,100268.38
2022-12-18T04:26:17.662Z,100267.09
2022-12-18T04:28:44.373Z,100269.88
2022-12-18T04:31:11.209Z,100284.03
2022-12-18T04:33:38.366Z,100287.91
2022-12-18T04:36:05.776Z,100291.41
2022-12-18T04:38:32.488Z,100286.75
2022-12-18T04:40:59.340Z,100287.19
2022-12-18T04:43:26.134Z,100287.94
2022-12-18T04:45:52.902Z,100287.22
2022-12-18T04:48:21.238Z,100297.59
2022-12-18T04:50:49.087Z,100294.81
2022-12-18T04:53:15.858Z,100295.91
2022-12-18T04:55:42.573Z,100297.72
2022-12-18T04:58:09.321Z,100301.25
2022-12-18T05:00:36.603Z,100301.87
2022-12-18T05:03:04.113Z,100311.41
2022-12-18T05:05:30.871Z,100312.63
2022-12-18T05:07:57.713Z,100307.72
2022-12-18T05:10:24.419Z,100312.31
2022-12-18T05:13:01.537Z,100317.03
2022-12-18T05:15:30.420Z,100319.56
2022-12-18T05:17:58.230Z,100318.47
2022-12-18T05:20:26.010Z,100324.87
2022-12-18T05:22:53.456Z,100327.41
2022-12-18T05:25:21.120Z,100324.53
2022-12-18T05:27:48.042Z,100331.41
2022-12-18T05:30:16.341Z,100329.25
2022-12-18T05:32:43.837Z,100330.94
2022-12-18T05:35:11.644Z,100317.06
2022-12-18T05:37:43.049Z,100329.84
2022-12-18T05:40:11.189Z,100327.44
2022-12-18T05:42:38.369Z,100332.03
2022-12-18T05:45:06.569Z,100336.50
2022-12-18T05:47:33.515Z,100344.25
2022-12-18T05:50:00.287Z,100353.19
2022-12-18T05:52:27.149Z,100353.56
2022-12-18T05:54:53.901Z,100356.22
2022-12-18T05:57:21.012Z,100361.41
2022-12-18T05:59:47.739Z,100367.06
2022-12-18T06:02:14.552Z,100371.53
2022-12-18T06:04:41.438Z,100368.03
2022-12-18T06:07:08.244Z,100368.28
2022-12-18T06:09:35.019Z,100374.81
2022-12-18T06:12:01.758Z,100382.78
2022-12-18T06:14:28.775Z,100385.69
2022-12-18T06:16:55.549Z,100382.06
2022-12-18T06:19:22.297Z,100380.16
2022-12-18T06:21:50.246Z,100384.75
2022-12-18T06:24:17.089Z,100390.06
2022-12-18T06:26:43.829Z,100390.16
2022-12-18T06:29:10.601Z,100379.31
2022-12-18T06:31:37.428Z,100383.66
2022-12-18T06:34:05.198Z,100384.38
2022-12-18T06:36:32.199Z,100397.91
2022-12-18T06:38:59.292Z,100410.09
2022-12-18T06:41:26.204Z,100411.78
2022-12-18T06:43:58.151Z,100421.44
2022-12-18T06:46:26.474Z,100426.50
2022-12-18T06:48:53.824Z,100415.63
2022-12-18T06:51:22.220Z,100428.91
2022-12-18T06:53:49.065Z,100433.13
2022-12-18T06:56:15.860Z,100432.03
2022-12-18T06:58:42.742Z,100440.59
2022-12-18T07:01:11.934Z,100442.81
2022-12-18T07:03:41.068Z,100452.34
2022-12-18T07:06:16.078Z,100457.53
2022-12-18T07:08:42.906Z,100461.75
2022-12-18T07:11:09.656Z,100460.66
2022-12-18T07:13:36.517Z,100454.25
2022-12-18T07:16:17.408Z,100457.50
2022-12-18T07:18:48.192Z,100461.63
2022-12-18T07:21:17.550Z,100467.31
2022-12-18T07:23:45.775Z,100477.09
2022-12-18T07:26:14.180Z,100466.22
2022-12-18T07:28:42.349Z,100465.13
2022-12-18T07:31:15.742Z,100467.41
2022-12-18T07:33:43.146Z,100470.53
2022-12-18T07:36:11.852Z,100479.72
2022-12-18T07:38:39.005Z,100478.63
2022-12-18T07:41:11.453Z,100465.94
2022-12-18T07:43:39.491Z,100474.50
2022-12-18T07:46:07.890Z,100480.28
2022-12-18T07:48:34.835Z,100489.62
2022-12-18T07:51:02.709Z,100494.09
2022-12-18T07:53:29.805Z,100501.94
2022-12-18T07:56:26.023Z,100502.78
2022-12-18T07:58:48.254Z,100515.72
2022-12-18T08:01:15.734Z,100508.31
2022-12-18T08:03:43.062Z,100499.97
2022-12-18T08:06:11.341Z,100503.81
2022-12-18T08:08:38.246Z,100512.63
2022-12-18T08:11:05.204Z,100502.59
2022-12-18T08:13:32.031Z,100502.94
2022-12-18T08:16:01.000Z,100511.37
2022-12-18T08:18:28.465Z,100508.22
2022-12-18T08:20:55.945Z,100516.91
2022-12-18T08:23:24.778Z,100515.84
2022-12-18T08:25:53.283Z,100517.16
2022-12-18T08:28:19.997Z,100522.09
2022-12-18T08:30:46.787Z,100530.53
2022-12-18T08:33:13.573Z,100540.06
2022-12-18T08:35:45.656Z,100535.72
2022-12-18T08:38:12.785Z,100537.03
2022-12-18T08:40:39.534Z,100536.66
2022-12-18T08:43:24.978Z,100546.09
2022-12-18T08:45:51.766Z,100544.12
2022-12-18T08:48:22.132Z,100548.09
2022-12-18T08:50:56.668Z,100546.03
2022-12-18T08:53:27.558Z,100544.91
2022-12-18T08:55:59.889Z,100543.72
2022-12-18T08:58:26.618Z,100533.62
2022-12-18T09:00:53.335Z,100545.72
2022-12-18T09:03:20.757Z,100535.78
2022-12-18T09:05:47.990Z,100532.00
2022-12-18T09:08:15.110Z,100526.41
2022-12-18T09:10:46.605Z,100525.28
2022-12-18T09:13:14.486Z,100532.94
2022-12-18T09:15:46.468Z,100535.47
2022-12-18T09:18:14.431Z,100530.84
2022-12-18T09:20:41.343Z,100528.87
2022-12-18T09:23:08.943Z,100526.94
2022-12-18T09:25:36.965Z,100532.00
2022-12-18T09:28:06.275Z,100552.06
2022-12-18T09:30:36.459Z,100545.78
2022-12-18T09:33:04.098Z,100544.78
2022-12-18T09:35:33.008Z,100545.63
2022-12-18T09:38:00.574Z,100539.19
2022-12-18T09:40:33.737Z,100544.28
2022-12-18T09:43:04.062Z,100538.69
2022-12-18T09:45:43.472Z,100541.94
2022-12-18T09:48:29.280Z,100548.81
2022-12-18T09:51:03.373Z,100541.41
2022-12-18T09:53:35.604Z,100541.97
2022-12-18T09:56:05.636Z,100538.19
2022-12-18T09:58:38.912Z,100537.22
2022-12-18T10:01:19.606Z,100536.09
2022-12-18T10:03:46.512Z,100546.53
2022-12-18T10:06:40.538Z,100543.59
2022-12-18T10:09:19.284Z,100551.31
2022-12-18T10:12:04.697Z,100551.31
2022-12-18T10:14:48.809Z,100538.41
2022-12-18T10:17:43.400Z,100531.97
2022-12-18T10:20:33.224Z,100532.66
2022-12-18T10:23:14.765Z,100527.06
2022-12-18T10:26:04.135Z,100532.16
2022-12-18T10:28:33.382Z,100532.88
2022-12-18T10:31:00.322Z,100533.56
2022-12-18T10:33:31.372Z,100529.78
2022-12-18T10:35:58.432Z,100522.47
2022-12-18T10:38:27.033Z,100517.84
2022-12-18T10:40:59.896Z,100508.03
2022-12-18T10:43:31.893Z,100515.03
2022-12-18T10:46:00.254Z,100514.91
2022-12-18T10:48:28.027Z,100516.47
2022-12-18T10:51:12.806Z,100510.97
2022-12-18T10:53:43.011Z,100515.19
2022-12-18T10:56:10.147Z,100508.72
2022-12-18T10:58:39.810Z,100502.44
2022-12-18T11:01:18.952Z,100504.97
2022-12-18T11:03:48.361Z,100507.50
2022-12-18T11:06:22.770Z,100498.50
2022-12-18T11:09:22.989Z,100507.22
2022-12-18T11:11:53.335Z,100506.09
2022-12-18T11:14:24.494Z,100495.44
2022-12-18T11:19:42.092Z,100485.31
2022-12-18T11:22:29.616Z,100488.69
2022-12-18T11:27:57.956Z,100494.59
2022-12-18T11:30:28.287Z,100496.12
2022-12-18T11:33:10.615Z,100495.16
2022-12-18T11:35:53.935Z,100496.84
2022-12-18T11:38:33.478Z,100493.22
2022-12-18T11:41:05.106Z,100502.06
2022-12-18T11:43:55.212Z,100493.06
2022-12-18T11:46:52.618Z,100502.78
2022-12-18T11:49:34.631Z,100508.94
2022-12-18T11:52:20.001Z,100501.66
2022-12-18T11:54:46.735Z,100501.66
2022-12-18T11:57:28.514Z,100497.28
2022-12-18T12:00:19.481Z,100499.97
2022-12-18T12:03:20.458Z,100496.03
2022-12-18T12:06:05.458Z,100495.88
2022-12-18T12:08:59.500Z,100486.88
2022-12-18T12:11:44.568Z,100484.91
2022-12-18T12:14:42.391Z,100481.41
2022-12-18T12:17:25.538Z,100468.75
2022-12-18T12:20:00.677Z,100478.31
2022-12-18T12:22:48.899Z,100473.09
2022-12-18T12:25:41.903Z,100478.31
2022-12-18T12:28:20.712Z,100467.47
2022-12-18T12:31:21.072Z,100472.69
2022-12-18T12:34:08.026Z,100459.03
2022-12-18T12:36:40.864Z,100448.25
2022-12-18T12:39:14.685Z,100452.31
2022-12-18T12:42:04.175Z,100439.94
2022-12-18T12:44:36.817Z,100456.94
2022-12-18T12:47:31.968Z,100456.81
2022-12-18T12:50:03.365Z,100454.97
2022-12-18T12:52:43.488Z,100460.47
2022-12-18T12:55:18.671Z,100470.16
2022-12-18T12:58:01.763Z,100471.72
2022-12-18T13:00:37.670Z,100466.22
2022-12-18T13:03:17.134Z,100464.37
2022-12-18T13:05:52.015Z,100465.38
2022-12-18T13:08:26.716Z,100461.56
2022-12-18T13:11:15.228Z,100477.47
2022-12-18T13:14:21.080Z,100475.62
2022-12-18T13:16:49.190Z,100488.84
2022-12-18T13:19:27.438Z,100490.69
2022-12-18T13:21:57.257Z,100494.87
2022-12-18T13:24:27.541Z,100492.06
2022-12-18T13:27:13.707Z,100491.09
2022-12-18T13:29:46.968Z,100500.78
2022-12-18T13:32:24.037Z,100495.44
2022-12-18T13:35:19.593Z,100505.16
2022-12-18T13:37:55.622Z,100498.81
2022-12-18T13:40:40.590Z,100497.72
2022-12-18T13:43:27.168Z,100497.56
2022-12-18T13:46:00.116Z,100493.91
2022-12-18T13:48:28.838Z,100483.94
2022-12-18T13:51:04.435Z,100490.25
2022-12-18T13:53:37.663Z,100481.25
2022-12-18T13:56:06.109Z,100483.78
2022-12-18T13:58:32.963Z,100486.44
2022-12-18T14:01:00.560Z,100496.16
2022-12-18T14:03:29.509Z,100497.84
2022-12-18T14:06:07.140Z,100498.53
2022-12-18T14:08:40.067Z,100498.53
2022-12-18T14:11:08.185Z,100500.91
2022-12-18T14:13:42.525Z,100497.13
2022-12-18T14:16:16.080Z,100496.28
2022-12-18T14:18:49.964Z,100497.13
2022-12-18T14:21:33.554Z,100497.13
2022-12-18T14:24:22.527Z,100505.97
2022-12-18T14:26:50.987Z,100505.84
2022-12-18T14:29:43.967Z,100517.38
2022-12-18T14:32:19.309Z,100516.38
2022-12-18T14:34:51.613Z,100528.91
2022-12-18T14:37:23.643Z,100538.59
2022-12-18T14:39:58.993Z,100535.78
2022-12-18T14:42:29.624Z,100542.97
2022-12-18T14:45:39.201Z,100535.94
2022-12-18T14:48:16.276Z,100541.97
2022-12-18T14:51:23.463Z,100544.66
2022-12-18T14:53:55.625Z,100541.72
2022-12-18T14:56:27.508Z,100538.22
2022-12-18T14:59:00.007Z,100538.22
2022-12-18T15:01:39.413Z,100542.56
2022-12-18T15:04:26.974Z,100544.41
2022-12-18T15:07:06.618Z,100549.75
2022-12-18T15:09:33.746Z,100548.91
2022-12-18T15:12:02.549Z,100547.91
2022-12-18T15:14:44.124Z,100552.66
2022-12-18T15:17:24.343Z,100554.25
2022-12-18T15:20:03.939Z,100546.47
2022-12-18T15:22:36.014Z,100557.31
2022-12-18T15:25:22.204Z,100557.06
2022-12-18T15:27:49.815Z,100552.66
2022-12-18T15:30:20.503Z,100561.53
2022-12-18T15:32:49.230Z,100557.91
2022-12-18T15:35:18.398Z,100564.22
2022-12-18T15:37:46.541Z,100561.69
2022-12-18T15:40:17.539Z,100567.88
2022-12-18T15:43:04.425Z,100565.09
2022-12-18T15:45:32.775Z,100555.34
2022-12-18T15:48:00.510Z,100549.88
2022-12-18T15:50:29.847Z,100549.75
2022-12-18T15:52:58.086Z,100549.75
2022-12-18T15:55:44.424Z,100542.56
2022-12-18T15:58:13.020Z,100547.22
2022-12-18T16:00:42.251Z,100550.84
2022-12-18T16:03:15.116Z,100561.44
2022-12-18T16:05:42.768Z,100562.41
2022-12-18T16:08:11.670Z,100560.59
2022-12-18T16:10:38.998Z,100571.28
2022-12-18T16:13:07.592Z,100573.09
2022-12-18T16:15:34.882Z,100580.25
2022-12-18T16:18:02.605Z,100577.31
2022-12-18T16:20:31.413Z,100589.84
2022-12-18T16:22:58.674Z,100590.53
2022-12-18T16:25:28.385Z,100586.19
2022-12-18T16:27:57.027Z,100588.84
2022-12-18T16:30:33.050Z,100586.19
2022-12-18T16:33:07.654Z,100585.34
2022-12-18T16:35:35.322Z,100586.88
2022-12-18T16:38:02.900Z,100588.72
2022-12-18T16:40:33.256Z,100586.03
2022-12-18T16:43:01.023Z,100586.88
2022-12-18T16:45:34.214Z,100587.72
2022-12-18T16:48:01.934Z,100592.94
2022-12-18T16:50:29.967Z,100595.59
2022-12-18T16:52:57.782Z,100583.91
2022-12-18T16:55:25.075Z,100584.91
2022-12-18T16:57:52.494Z,100581.25
2022-12-18T17:00:20.367Z,100578.44
2022-12-18T17:02:50.464Z,100580.25
2022-12-18T17:05:17.812Z,100583.78
2022-12-18T17:07:45.700Z,100590.81
2022-12-18T17:10:13.680Z,100586.44
2022-12-18T17:12:40.936Z,100582.94
2022-12-18T17:15:09.417Z,100587.16
2022-12-18T17:17:37.222Z,100589.97
2022-12-18T17:20:05.902Z,100584.06
2022-12-18T17:22:33.376Z,100579.28
2022-12-18T17:25:01.397Z,100583.34
2022-12-18T17:27:30.365Z,100577.16
2022-12-18T17:29:57.629Z,100580.81
2022-12-18T17:32:25.389Z,100585.19
2022-12-18T17:34:52.663Z,100582.34
2022-12-18T17:37:20.170Z,100587.72
2022-12-18T17:39:47.812Z,100583.34
2022-12-18T17:42:16.374Z,100577.84
2022-12-18T17:44:45.362Z,100577.00
2022-12-18T17:47:15.170Z,100584.03
2022-12-18T17:49:43.253Z,100585.87
2022-12-18T17:52:11.130Z,100582.22
2022-12-18T17:54:41.531Z,100592.91
2022-12-18T17:57:09.095Z,100584.88
2022-12-18T17:59:37.069Z,100590.25
2022-12-18T18:02:05.138Z,100593.75
2022-12-18T18:04:36.237Z,100588.25
2022-12-18T18:07:05.373Z,100593.47
2022-12-18T18:09:33.983Z,100590.78
2022-12-18T18:12:21.563Z,100593.75
2022-12-18T18:14:49.345Z,100599.94
2022-12-18T18:17:17.058Z,100590.25
2022-12-18T18:19:49.689Z,100599.25
2022-12-18T18:22:18.048Z,100602.91
2022-12-18T18:24:52.250Z,100606.84
2022-12-18T18:27:19.645Z,100601.22
2022-12-18T18:29:46.916Z,100598.69
2022-12-18T18:32:15.839Z,100601.50
2022-12-18T18:34:45.736Z,100601.38
2022-12-18T18:37:17.349Z,100604.19
2022-12-18T18:39:44.515Z,100609.38
2022-12-18T18:42:12.267Z,100609.66
2022-12-18T18:44:44.535Z,100608.12
2022-12-18T18:47:16.649Z,100605.31
2022-12-18T18:49:44.430Z,100599.97
2022-12-18T18:52:11.960Z,100601.94
2022-12-18T18:54:47.848Z,100603.75
2022-12-18T18:57:30.285Z,100597.28
2022-12-18T18:59:58.171Z,100601.78
2022-12-18T19:02:25.973Z,100608.81
2022-12-18T19:04:53.885Z,100612.63
2022-12-18T19:07:29.880Z,100614.59
2022-12-18T19:10:05.050Z,100608.81
2022-12-18T19:12:52.960Z,100608.97
2022-12-18T19:15:20.714Z,100615.03
2022-12-18T19:17:48.144Z,100618.53
2022-12-18T19:20:16.049Z,100613.34
2022-12-18T19:22:43.595Z,100619.66
2022-12-18T19:25:14.783Z,100606.28
2022-12-18T19:27:42.276Z,100608.97
2022-12-18T19:30:10.261Z,100615.03
2022-12-18T19:32:37.533Z,100615.44
2022-12-18T19:35:05.789Z,100620.50
2022-12-18T19:37:35.565Z,100624.03
2022-12-18T19:40:04.318Z,100625.28
2022-12-18T19:42:40.701Z,100620.78
2022-12-18T19:45:08.300Z,100628.81
2022-12-18T19:47:35.997Z,100630.50
2022-12-18T19:50:03.950Z,100633.31
2022-12-18T19:52:31.176Z,100627.97
2022-12-18T19:54:58.656Z,100622.06
2022-12-18T19:57:26.095Z,100614.47
2022-12-18T19:59:53.644Z,100617.13
2022-12-18T20:02:21.839Z,100620.78
2022-12-18T20:04:50.346Z,100613.75
2022-12-18T20:07:17.548Z,100619.25
2022-12-18T20:09:48.365Z,100627.25
2022-12-18T20:12:18.979Z,100619.38
2022-12-18T20:14:48.127Z,100621.31
2022-12-18T20:17:16.929Z,100622.19
2022-12-18T20:19:47.656Z,100631.19
2022-12-18T20:22:15.265Z,100635.69
2022-12-18T20:24:42.867Z,100642.72
2022-12-18T20:27:15.222Z,100642.00
2022-12-18T20:29:44.282Z,100647.66
2022-12-18T20:32:11.836Z,100651.59
2022-12-18T20:34:39.796Z,100642.84
2022-12-18T20:37:08.103Z,100648.06
2022-12-18T20:39:37.230Z,100664.25
2022-12-18T20:42:05.323Z,100654.53
2022-12-18T20:44:32.308Z,100653.00
2022-12-18T20:47:07.469Z,100640.31
2022-12-18T20:49:36.111Z,100639.50
2022-12-18T20:52:06.625Z,100643.16
2022-12-18T20:54:33.617Z,100643.97
2022-12-18T20:57:00.587Z,100654.81
2022-12-18T20:59:27.733Z,100655.81
2022-12-18T21:01:54.958Z,100657.78
2022-12-18T21:04:22.547Z,100648.91
2022-12-18T21:07:01.879Z,100648.22
2022-12-18T21:09:37.173Z,100647.34
2022-12-18T21:12:25.836Z,100650.03
2022-12-18T21:14:52.882Z,100641.16
2022-12-18T21:17:19.629Z,100631.56
2022-12-18T21:19:46.451Z,100636.78
2022-12-18T21:22:13.699Z,100637.63
2022-12-18T21:24:41.033Z,100620.75
2022-12-18T21:27:07.801Z,100629.59
2022-12-18T21:29:35.098Z,100632.41
2022-12-18T21:32:03.178Z,100633.53
2022-12-18T21:34:31.585Z,100636.22
2022-12-18T21:37:00.150Z,100637.91
2022-12-18T21:39:28.964Z,100628.19
2022-12-18T21:42:15.076Z,100638.19
2022-12-18T21:44:42.616Z,100633.81
2022-12-18T21:47:21.908Z,100630.44
2022-12-18T21:49:53.420Z,100631.44
2022-12-18T21:52:28.632Z,100625.94
2022-12-18T21:55:09.071Z,100624.13
2022-12-18T21:57:38.699Z,100619.91
2022-12-18T22:00:07.513Z,100624.25
2022-12-18T22:02:34.388Z,100626.78
2022-12-18T22:05:01.233Z,100625.94
2022-12-18T22:07:29.261Z,100621.97
2022-12-18T22:09:55.993Z,100623.69
2022-12-18T22:12:43.628Z,100611.03
2022-12-18T22:15:21.093Z,100615.53
2022-12-18T22:17:49.499Z,100620.03
2022-12-18T22:20:16.486Z,100619.44
2022-12-18T22:22:43.220Z,100615.22
2022-12-18T22:25:10.744Z,100623.22
2022-12-18T22:27:37.793Z,100621.41
2022-12-18T22:30:05.588Z,100620.97
2022-12-18T22:32:34.064Z,100621.69
2022-12-18T22:35:07.967Z,100622.53
2022-12-18T22:37:36.129Z,100617.19
2022-12-18T22:40:05.952Z,100622.66
2022-12-18T22:42:33.957Z,100620.00
2022-12-18T22:45:00.815Z,100619.28
2022-12-18T22:47:30.123Z,100620.69
2022-12-18T22:49:57.606Z,100624.34
2022-12-18T22:52:24.923Z,100615.50
2022-12-18T22:54:53.680Z,100612.53
2022-12-18T22:57:22.032Z,100608.19
2022-12-18T22:59:50.063Z,100604.81
2022-12-18T23:02:18.131Z,100599.75
2022-12-18T23:04:45.449Z,100598.75
2022-12-18T23:07:12.632Z,100596.87
2022-12-18T23:09:39.895Z,100596.87
2022-12-18T23:12:06.994Z,100594.50
2022-12-18T23:14:33.717Z,100590.13
2022-12-18T23:17:00.445Z,100598.25
2022-12-18T23:19:27.192Z,100597.56
2022-12-18T23:21:54.796Z,100595.41
2022-12-18T23:24:23.815Z,100589.78
2022-12-18T23:26:50.553Z,100580.38
2022-12-18T23:29:17.301Z,100589.75
2022-12-18T23:31:44.097Z,100587.81
2022-12-18T23:34:14.097Z,100593.72
2022-12-18T23:36:45.558Z,100603.53
2022-12-18T23:39:25.032Z,100605.22
2022-12-18T23:42:00.151Z,100600.03
2022-12-18T23:44:27.710Z,100601.56
2022-12-18T23:46:54.846Z,100595.09
2022-12-18T23:49:21.926Z,100593.69
2022-12-18T23:51:49.417Z,100588.34
2022-12-18T23:54:16.474Z,100578.53
2022-12-18T23:56:43.225Z,100591.72
2022-12-18T23:59:10.228Z,100591.19
